createdAt,value
2018-10-16T00:00:27.078Z,8.5
2018-10-16T00:01:16.594Z,8.4
2018-10-16T00:02:07.203Z,8.4
2018-10-16T00:02:57.416Z,8.4
2018-10-16T00:03:46.479Z,8.4
2018-10-16T00:04:37.123Z,8.4
2018-10-16T00:05:27.190Z,8.4
2018-10-16T00:06:17.250Z,8.4
2018-10-16T00:07:07.565Z,8.3
2018-10-16T00:25:21.186Z,7.9
2018-10-16T00:26:10.941Z,7.9
2018-10-16T00:27:00.747Z,7.9
2018-10-16T00:27:50.531Z,7.9
2018-10-16T00:28:41.164Z,7.9
2018-10-16T00:29:31.241Z,7.9
2018-10-16T00:30:21.283Z,7.9
2018-10-16T00:31:11.317Z,7.9
2018-10-16T00:32:01.405Z,7.8
2018-10-16T00:32:51.262Z,7.8
2018-10-16T00:33:41.520Z,7.8
2018-10-16T00:34:31.847Z,7.8
2018-10-16T00:35:21.894Z,7.8
2018-10-16T00:36:11.941Z,7.8
2018-10-16T00:37:01.187Z,7.7
2018-10-16T00:37:51.798Z,7.7
2018-10-16T00:38:41.883Z,7.7
2018-10-16T00:39:31.891Z,7.6
2018-10-16T00:40:22.229Z,7.6
2018-10-16T00:41:11.765Z,7.6
2018-10-16T00:42:02.108Z,7.6
2018-10-16T00:42:52.175Z,7.6
2018-10-16T00:43:42.238Z,7.6
2018-10-16T00:44:32.025Z,7.6
2018-10-16T00:45:22.404Z,7.5
2018-10-16T00:46:11.870Z,7.5
2018-10-16T00:47:02.490Z,7.5
2018-10-16T00:47:52.533Z,7.4
2018-10-16T00:48:42.641Z,7.4
2018-10-16T00:49:32.703Z,7.4
2018-10-16T00:50:22.765Z,7.4
2018-10-16T00:51:12.528Z,7.4
2018-10-16T00:52:02.850Z,7.4
2018-10-16T00:52:52.918Z,7.4
2018-10-16T00:53:42.698Z,7.4
2018-10-16T00:54:32.777Z,7.3
2018-10-16T00:55:23.158Z,7.3
2018-10-16T00:56:13.192Z,7.3
2018-10-16T00:57:03.483Z,7.3
2018-10-16T00:57:53.327Z,7.3
2018-10-16T00:58:43.058Z,7.3
2018-10-16T00:59:32.852Z,7.3
2018-10-16T01:00:23.425Z,7.3
2018-10-16T01:01:13.517Z,7.3
2018-10-16T01:02:03.880Z,7.3
2018-10-16T01:02:53.682Z,7.3
2018-10-16T01:03:43.454Z,7.2
2018-10-16T01:04:33.804Z,7.2
2018-10-16T01:05:23.847Z,7.2
2018-10-16T01:06:13.924Z,7.2
2018-10-16T01:07:03.989Z,7.1
2018-10-16T01:07:54.014Z,7.1
2018-10-16T01:08:44.141Z,7.1
2018-10-16T01:09:33.569Z,7.1
2018-10-16T01:10:24.234Z,7.1
2018-10-16T01:11:14.286Z,7.1
2018-10-16T01:12:04.300Z,7.1
2018-10-16T01:12:54.139Z,7.1
2018-10-16T01:13:44.491Z,7.1
2018-10-16T01:14:34.258Z,7
2018-10-16T01:15:24.581Z,7
2018-10-16T01:16:14.366Z,7
2018-10-16T01:17:04.737Z,7
2018-10-16T01:17:55.006Z,6.9
2018-10-16T01:18:44.538Z,6.9
2018-10-16T01:19:34.336Z,6.9
2018-10-16T01:20:24.386Z,6.9
2018-10-16T01:21:14.998Z,6.9
2018-10-16T01:22:04.515Z,6.9
2018-10-16T01:22:55.133Z,6.9
2018-10-16T01:23:44.906Z,6.8
2018-10-16T01:24:34.958Z,6.8
2018-10-16T01:25:25.319Z,6.8
2018-10-16T01:26:15.085Z,6.8
2018-10-16T01:27:05.431Z,6.8
2018-10-16T01:27:55.797Z,6.8
2018-10-16T01:28:45.565Z,6.8
2018-10-16T01:29:35.345Z,6.7
2018-10-16T01:30:25.415Z,6.7
2018-10-16T01:31:15.794Z,6.7
2018-10-16T01:32:05.820Z,6.7
2018-10-16T01:32:56.138Z,6.6
2018-10-16T01:33:45.367Z,6.7
2018-10-16T01:34:36.004Z,6.6
2018-10-16T01:35:25.758Z,6.6
2018-10-16T01:36:16.412Z,6.6
2018-10-16T01:37:06.177Z,6.6
2018-10-16T01:37:55.667Z,6.6
2018-10-16T01:38:46.002Z,6.6
2018-10-16T01:39:36.075Z,6.6
2018-10-16T01:40:26.412Z,6.6
2018-10-16T01:41:16.193Z,6.6
2018-10-16T01:42:06.544Z,6.5
2018-10-16T01:42:56.635Z,6.5
2018-10-16T01:43:46.591Z,6.5
2018-10-16T01:44:36.447Z,6.4
2018-10-16T01:45:26.772Z,6.4
2018-10-16T01:46:16.579Z,6.4
2018-10-16T01:47:06.902Z,6.4
2018-10-16T01:47:56.932Z,6.4
2018-10-16T01:48:47.051Z,6.4
2018-10-16T01:49:36.822Z,6.4
2018-10-16T01:50:26.880Z,6.3
2018-10-16T01:51:17.229Z,6.3
2018-10-16T01:52:06.989Z,6.3
2018-10-16T01:52:57.355Z,6.3
2018-10-16T01:53:47.421Z,6.3
2018-10-16T01:54:37.179Z,6.3
2018-10-16T01:55:27.556Z,6.2
2018-10-16T01:56:17.036Z,6.2
2018-10-16T01:57:07.676Z,6.2
2018-10-16T01:57:57.717Z,6.2
2018-10-16T01:58:47.764Z,6.1
2018-10-16T01:59:37.571Z,6.1
2018-10-16T02:00:27.625Z,6.1
2018-10-16T02:01:17.958Z,6.1
2018-10-16T02:02:08.293Z,6.1
2018-10-16T02:02:57.511Z,6
2018-10-16T02:03:48.143Z,6
2018-10-16T02:04:38.213Z,6
2018-10-16T02:05:27.990Z,6
2018-10-16T02:06:18.065Z,6
2018-10-16T02:07:08.386Z,6
2018-10-16T02:07:58.456Z,6
2018-10-16T02:08:48.771Z,5.9
2018-10-16T02:09:38.594Z,5.9
2018-10-16T02:10:28.648Z,5.9
2018-10-16T02:11:18.705Z,5.9
2018-10-16T02:12:08.718Z,5.9
2018-10-16T02:12:58.826Z,5.9
2018-10-16T02:13:48.618Z,5.9
2018-10-16T02:14:38.770Z,5.9
2018-10-16T02:15:28.436Z,5.9
2018-10-16T02:16:19.065Z,5.9
2018-10-16T02:17:09.127Z,5.9
2018-10-16T02:17:58.930Z,5.9
2018-10-16T02:18:49.280Z,5.9
2018-10-16T02:19:39.580Z,5.9
2018-10-16T02:20:29.383Z,5.8
2018-10-16T02:21:19.445Z,5.8
2018-10-16T02:22:09.205Z,5.8
2018-10-16T02:22:59.518Z,5.8
2018-10-16T02:23:49.637Z,5.8
2018-10-16T02:24:39.110Z,5.8
2018-10-16T02:25:29.457Z,5.8
2018-10-16T02:26:19.817Z,5.8
2018-10-16T02:27:09.887Z,5.8
2018-10-16T02:27:59.940Z,5.8
2018-10-16T02:28:49.735Z,5.8
2018-10-16T02:29:40.055Z,5.7
2018-10-16T02:30:29.827Z,5.8
2018-10-16T02:31:20.192Z,5.7
2018-10-16T02:32:10.237Z,5.7
2018-10-16T02:33:00.016Z,5.7
2018-10-16T02:33:50.344Z,5.7
2018-10-16T02:34:40.142Z,5.7
2018-10-16T02:35:30.212Z,5.7
2018-10-16T02:36:20.531Z,5.7
2018-10-16T02:37:10.613Z,5.7
2018-10-16T02:38:00.390Z,5.7
2018-10-16T02:38:50.729Z,5.7
2018-10-16T02:39:40.524Z,5.7
2018-10-16T02:40:30.834Z,5.6
2018-10-16T02:41:20.924Z,5.6
2018-10-16T02:42:10.705Z,5.6
2018-10-16T02:43:01.055Z,5.6
2018-10-16T02:43:50.840Z,5.6
2018-10-16T02:44:41.146Z,5.6
2018-10-16T02:45:31.233Z,5.6
2018-10-16T02:46:21.271Z,5.6
2018-10-16T02:47:11.354Z,5.6
2018-10-16T02:48:01.391Z,5.6
2018-10-16T02:48:51.189Z,5.6
2018-10-16T02:49:41.548Z,5.6
2018-10-16T02:50:31.583Z,5.6
2018-10-16T02:51:21.651Z,5.6
2018-10-16T02:52:11.416Z,5.6
2018-10-16T02:53:01.485Z,5.6
2018-10-16T02:53:51.818Z,5.6
2018-10-16T02:54:41.906Z,5.6
2018-10-16T02:55:31.966Z,5.6
2018-10-16T02:56:22.061Z,5.6
2018-10-16T02:57:11.521Z,5.6
2018-10-16T02:58:02.161Z,5.6
2018-10-16T02:58:52.221Z,5.5
2018-10-16T02:59:42.266Z,5.5
2018-10-16T03:00:32.593Z,5.6
2018-10-16T03:01:22.385Z,5.5
2018-10-16T03:02:12.451Z,5.5
2018-10-16T03:03:02.524Z,5.5
2018-10-16T03:03:52.571Z,5.5
2018-10-16T03:04:42.367Z,5.5
2018-10-16T03:05:32.752Z,5.5
2018-10-16T03:06:22.781Z,5.4
2018-10-16T03:07:12.523Z,5.4
2018-10-16T03:08:02.900Z,5.4
2018-10-16T03:08:52.964Z,5.4
2018-10-16T03:09:42.418Z,5.4
2018-10-16T03:10:32.777Z,5.4
2018-10-16T03:11:23.120Z,5.4
2018-10-16T03:12:13.187Z,5.4
2018-10-16T03:13:03.249Z,5.4
2018-10-16T03:13:53.043Z,5.4
2018-10-16T03:14:43.359Z,5.4
2018-10-16T03:15:33.435Z,5.4
2018-10-16T03:16:23.219Z,5.3
2018-10-16T03:17:13.287Z,5.3
2018-10-16T03:18:03.626Z,5.3
2018-10-16T03:18:53.673Z,5.3
2018-10-16T03:19:43.437Z,5.3
2018-10-16T03:20:33.467Z,5.3
2018-10-16T03:21:23.284Z,5.3
2018-10-16T03:22:13.914Z,5.3
2018-10-16T03:23:03.986Z,5.3
2018-10-16T03:23:54.060Z,5.2
2018-10-16T03:24:43.830Z,5.2
2018-10-16T03:25:33.617Z,5.1
2018-10-16T03:26:24.231Z,5.1
2018-10-16T03:27:14.003Z,5.1
2018-10-16T03:28:04.358Z,5.1
2018-10-16T03:28:54.401Z,5.1
2018-10-16T03:29:44.518Z,5.1
2018-10-16T03:30:34.273Z,5
2018-10-16T03:31:24.311Z,5
2018-10-16T03:32:14.390Z,5
2018-10-16T03:33:04.726Z,4.9
2018-10-16T03:33:54.789Z,4.9
2018-10-16T03:34:44.807Z,4.9
2018-10-16T03:35:34.881Z,4.9
2018-10-16T03:36:24.412Z,4.9
2018-10-16T03:37:14.439Z,4.9
2018-10-16T03:38:04.231Z,4.8
2018-10-16T03:38:54.865Z,4.8
2018-10-16T03:39:45.190Z,4.8
2018-10-16T03:40:35.275Z,4.8
2018-10-16T03:41:25.045Z,4.8
2018-10-16T03:42:15.386Z,4.8
2018-10-16T03:43:05.437Z,4.8
2018-10-16T03:43:55.533Z,4.7
2018-10-16T03:44:45.300Z,4.7
2018-10-16T03:45:35.352Z,4.7
2018-10-16T03:46:24.845Z,4.7
2018-10-16T03:47:15.543Z,4.6
2018-10-16T03:48:05.802Z,4.6
2018-10-16T03:48:55.607Z,4.6
2018-10-16T03:49:45.937Z,4.6
2018-10-16T03:50:35.747Z,4.6
2018-10-16T03:51:25.792Z,4.6
2018-10-16T03:52:15.866Z,4.6
2018-10-16T03:53:06.179Z,4.6
2018-10-16T03:53:56.267Z,4.6
2018-10-16T03:54:46.288Z,4.6
2018-10-16T03:55:36.367Z,4.6
2018-10-16T03:56:26.444Z,4.6
2018-10-16T03:57:16.773Z,4.6
2018-10-16T03:58:06.545Z,4.6
2018-10-16T03:58:56.329Z,4.5
2018-10-16T03:59:46.699Z,4.5
2018-10-16T04:00:36.749Z,4.5
2018-10-16T04:01:26.806Z,4.6
2018-10-16T04:02:16.585Z,4.5
2018-10-16T04:03:06.913Z,4.6
2018-10-16T04:03:56.701Z,4.6
2018-10-16T04:04:47.036Z,4.6
2018-10-16T04:05:37.091Z,4.5
2018-10-16T04:06:27.244Z,4.6
2018-10-16T04:07:16.953Z,4.6
2018-10-16T04:08:07.296Z,4.6
2018-10-16T04:08:57.343Z,4.6
2018-10-16T04:09:47.432Z,4.6
2018-10-16T04:10:37.459Z,4.5
2018-10-16T04:11:27.798Z,4.5
2018-10-16T04:12:17.587Z,4.5
2018-10-16T04:13:07.683Z,4.5
2018-10-16T04:13:57.985Z,4.5
2018-10-16T04:14:47.781Z,4.4
2018-10-16T04:15:37.555Z,4.5
2018-10-16T04:16:27.341Z,4.4
2018-10-16T04:17:18.212Z,4.4
2018-10-16T04:18:08.073Z,4.4
2018-10-16T04:18:57.812Z,4.4
2018-10-16T04:19:48.146Z,4.4
2018-10-16T04:20:38.206Z,4.4
2018-10-16T04:21:28.298Z,4.4
2018-10-16T04:22:18.531Z,4.4
2018-10-16T04:23:07.850Z,4.4
2018-10-16T04:23:57.885Z,4.4
2018-10-16T04:24:48.517Z,4.4
2018-10-16T04:25:38.574Z,4.4
2018-10-16T04:26:28.352Z,4.3
2018-10-16T04:27:18.735Z,4.3
2018-10-16T04:28:08.767Z,4.3
2018-10-16T04:28:58.629Z,4.3
2018-10-16T04:29:48.889Z,4.3
2018-10-16T04:30:38.392Z,4.3
2018-10-16T04:31:28.995Z,4.3
2018-10-16T04:32:19.084Z,4.3
2018-10-16T04:33:08.579Z,4.3
2018-10-16T04:33:58.644Z,4.3
2018-10-16T04:34:48.704Z,4.3
2018-10-16T04:35:39.308Z,4.3
2018-10-16T04:36:29.359Z,4.3
2018-10-16T04:54:43.255Z,4.2
2018-10-16T04:55:33.317Z,4.3
2018-10-16T04:56:23.360Z,4.3
2018-10-16T04:57:13.699Z,4.3
2018-10-16T04:58:03.744Z,4.3
2018-10-16T04:58:53.550Z,4.3
2018-10-16T04:59:43.886Z,4.3
2018-10-16T05:00:33.964Z,4.3
2018-10-16T05:01:24.107Z,4.3
2018-10-16T05:02:13.861Z,4.3
2018-10-16T05:03:04.105Z,4.3
2018-10-16T05:03:54.004Z,4.3
2018-10-16T05:04:44.260Z,4.4
2018-10-16T05:05:33.756Z,4.4
2018-10-16T05:06:23.996Z,4.4
2018-10-16T05:07:14.247Z,4.4
2018-10-16T05:08:04.820Z,4.4
2018-10-16T05:08:54.270Z,4.4
2018-10-16T05:09:44.049Z,4.4
2018-10-16T05:10:34.694Z,4.4
2018-10-16T05:11:24.737Z,4.4
2018-10-16T05:12:14.519Z,4.4
2018-10-16T05:13:05.232Z,4.4
2018-10-16T05:13:54.920Z,4.4
2018-10-16T05:14:44.991Z,4.4
2018-10-16T05:15:35.027Z,4.4
2018-10-16T05:16:24.541Z,4.4
2018-10-16T05:17:14.916Z,4.5
2018-10-16T05:18:04.955Z,4.5
2018-10-16T05:18:54.911Z,4.6
2018-10-16T05:19:45.387Z,4.6
2018-10-16T05:20:35.402Z,4.6
2018-10-16T05:21:25.466Z,4.6
2018-10-16T05:22:15.547Z,4.6
2018-10-16T05:23:05.586Z,4.7
2018-10-16T05:23:55.359Z,4.8
2018-10-16T05:24:45.776Z,4.8
2018-10-16T05:25:35.786Z,4.9
2018-10-16T05:26:25.869Z,4.9
2018-10-16T05:27:15.919Z,5.1
2018-10-16T05:28:06.032Z,5.2
2018-10-16T05:28:56.086Z,5.3
2018-10-16T05:29:45.928Z,5.5
2018-10-16T05:30:36.131Z,5.7
2018-10-16T05:31:27.326Z,5.9
2018-10-16T05:32:16.299Z,6.1
2018-10-16T05:33:06.343Z,6.3
2018-10-16T05:33:56.123Z,6.6
2018-10-16T05:34:46.603Z,6.8
2018-10-16T05:35:36.545Z,7.1
2018-10-16T05:36:26.560Z,7.3
2018-10-16T05:37:16.334Z,7.6
2018-10-16T05:38:06.685Z,7.8
2018-10-16T05:38:56.789Z,8.1
2018-10-16T05:39:46.831Z,8.4
2018-10-16T05:40:36.323Z,8.7
2018-10-16T05:41:26.953Z,8.9
2018-10-16T05:42:16.708Z,9.3
2018-10-16T05:43:07.063Z,9.6
2018-10-16T05:43:57.120Z,9.9
2018-10-16T05:44:47.180Z,10.2
2018-10-16T05:45:37.235Z,10.5
2018-10-16T05:46:27.548Z,10.8
2018-10-16T05:47:17.612Z,11.1
2018-10-16T05:48:07.419Z,11.4
2018-10-16T05:48:57.548Z,11.8
2018-10-16T05:49:47.533Z,12.1
2018-10-16T05:50:37.619Z,12.4
2018-10-16T05:51:27.689Z,12.8
2018-10-16T05:52:17.181Z,13.1
2018-10-16T05:53:07.830Z,13.5
2018-10-16T05:53:57.858Z,13.8
2018-10-16T05:54:47.936Z,14.1
2018-10-16T05:55:37.985Z,14.5
2018-10-16T05:56:28.043Z,14.9
2018-10-16T05:57:18.154Z,15.3
2018-10-16T05:58:07.923Z,15.6
2018-10-16T05:58:57.925Z,16
2018-10-16T05:59:47.993Z,16.4
2018-10-16T06:00:38.072Z,16.8
2018-10-16T06:01:28.363Z,17.1
2018-10-16T06:02:18.185Z,17.6
2018-10-16T06:03:08.532Z,17.9
2018-10-16T06:03:58.315Z,18.4
2018-10-16T06:04:48.385Z,18.8
2018-10-16T06:05:39.137Z,19.1
2018-10-16T06:06:28.776Z,19.6
2018-10-16T06:07:18.800Z,20
2018-10-16T06:08:08.340Z,20.4
2018-10-16T06:08:58.673Z,20.9
2018-10-16T06:09:49.030Z,21.3
2018-10-16T06:10:38.565Z,21.8
2018-10-16T06:11:28.865Z,22.2
2018-10-16T06:12:19.518Z,22.6
2018-10-16T06:13:08.982Z,23.1
2018-10-16T06:13:59.389Z,23.6
2018-10-16T06:14:49.125Z,24
2018-10-16T06:15:39.196Z,24.5
2018-10-16T06:16:29.520Z,24.9
2018-10-16T06:17:19.555Z,25.4
2018-10-16T06:18:09.345Z,25.9
2018-10-16T06:18:59.404Z,26.4
2018-10-16T06:19:49.195Z,26.8
2018-10-16T06:20:39.844Z,27.3
2018-10-16T06:21:29.578Z,27.8
2018-10-16T06:22:19.657Z,28.1
2018-10-16T06:23:09.696Z,28.6
2018-10-16T06:24:00.044Z,29.1
2018-10-16T06:24:50.108Z,29.5
2018-10-16T06:25:39.909Z,29.9
2018-10-16T06:26:30.486Z,30.3
2018-10-16T06:27:20.312Z,30.8
2018-10-16T06:28:10.396Z,31.2
2018-10-16T06:29:00.139Z,31.6
2018-10-16T06:29:50.489Z,32.1
2018-10-16T06:30:40.790Z,32.5
2018-10-16T06:31:30.334Z,33
2018-10-16T06:32:20.391Z,33.4
2018-10-16T06:33:10.799Z,33.9
2018-10-16T06:34:00.729Z,34.3
2018-10-16T06:34:50.647Z,34.7
2018-10-16T06:35:40.956Z,35.1
2018-10-16T06:36:31.100Z,35.6
2018-10-16T06:37:20.751Z,36
2018-10-16T06:38:10.806Z,36.4
2018-10-16T06:39:00.881Z,36.9
2018-10-16T06:39:51.223Z,37.4
2018-10-16T06:40:41.717Z,37.8
2018-10-16T06:41:31.263Z,38.3
2018-10-16T06:42:21.406Z,38.7
2018-10-16T06:43:11.469Z,39.1
2018-10-16T06:44:01.494Z,39.5
2018-10-16T06:44:51.564Z,39.9
2018-10-16T06:45:41.656Z,40.3
2018-10-16T06:46:32.248Z,40.7
2018-10-16T06:47:21.817Z,41.1
2018-10-16T06:48:12.872Z,41.5
2018-10-16T06:49:02.079Z,42
2018-10-16T06:49:51.675Z,42.4
2018-10-16T06:50:41.783Z,42.8
2018-10-16T06:51:31.800Z,43.2
2018-10-16T06:52:22.136Z,43.6
2018-10-16T06:53:12.453Z,44.1
2018-10-16T06:54:01.970Z,44.5
2018-10-16T06:54:52.754Z,44.9
2018-10-16T06:55:42.092Z,45.4
2018-10-16T06:56:32.445Z,45.8
2018-10-16T06:57:22.512Z,46.3
2018-10-16T06:58:11.982Z,46.7
2018-10-16T06:59:02.653Z,47.1
2018-10-16T06:59:52.672Z,47.5
2018-10-16T07:00:42.168Z,47.9
2018-10-16T07:01:32.815Z,48.3
2018-10-16T07:02:23.190Z,48.8
2018-10-16T07:03:12.923Z,49.1
2018-10-16T07:04:03.267Z,49.5
2018-10-16T07:04:53.043Z,49.9
2018-10-16T07:05:42.815Z,50.3
2018-10-16T07:06:32.674Z,50.6
2018-10-16T07:07:24.008Z,51
2018-10-16T07:08:12.997Z,51.4
2018-10-16T07:09:03.599Z,51.8
2018-10-16T07:09:53.414Z,53.3
2018-10-16T07:10:43.504Z,53.6
2018-10-16T07:11:33.269Z,52.1
2018-10-16T07:12:23.870Z,50
2018-10-16T07:13:13.684Z,46.4
2018-10-16T07:14:03.470Z,43.9
2018-10-16T07:14:54.526Z,42.4
2018-10-16T07:15:43.864Z,41.4
2018-10-16T07:16:33.933Z,40.8
2018-10-16T07:17:24.217Z,40.4
2018-10-16T07:18:14.029Z,40.3
2018-10-16T07:19:04.099Z,40.3
2018-10-16T07:19:53.866Z,40.6
2018-10-16T07:20:44.211Z,41
2018-10-16T07:21:34.433Z,41.6
2018-10-16T07:22:23.778Z,42.3
2018-10-16T07:23:14.275Z,42.9
2018-10-16T07:24:04.532Z,43.6
2018-10-16T07:24:54.533Z,44.3
2018-10-16T07:25:44.312Z,45.1
2018-10-16T07:26:34.644Z,45.8
2018-10-16T07:27:24.731Z,46.4
2018-10-16T07:28:14.781Z,47.2
2018-10-16T07:29:04.768Z,47.9
2018-10-16T07:29:54.819Z,48.6
2018-10-16T07:30:44.666Z,49.4
2018-10-16T07:31:35.039Z,50.1
2018-10-16T07:32:25.069Z,50.8
2018-10-16T07:33:15.143Z,51.5
2018-10-16T07:34:05.223Z,52.6
2018-10-16T07:34:55.273Z,54.4
2018-10-16T07:35:45.050Z,53.6
2018-10-16T07:36:35.403Z,52.6
2018-10-16T07:37:25.177Z,51.1
2018-10-16T07:38:16.595Z,49.1
2018-10-16T07:39:05.973Z,47.6
2018-10-16T07:39:55.387Z,46.9
2018-10-16T07:40:45.945Z,46.6
2018-10-16T07:41:35.475Z,46.8
2018-10-16T07:42:25.856Z,47.3
2018-10-16T07:43:15.596Z,47.8
2018-10-16T07:44:05.947Z,48.4
2018-10-16T07:44:56.272Z,49.1
2018-10-16T07:45:46.057Z,49.8
2018-10-16T07:46:36.436Z,50.6
2018-10-16T07:47:26.200Z,51.5
2018-10-16T07:48:16.355Z,53.1
2018-10-16T07:49:06.314Z,54.6
2018-10-16T07:49:56.614Z,54.9
2018-10-16T07:50:46.142Z,54.9
2018-10-16T07:51:36.561Z,54.3
2018-10-16T07:52:26.554Z,53
2018-10-16T07:53:16.904Z,51.7
2018-10-16T07:54:06.412Z,51.3
2018-10-16T07:54:56.772Z,51.8
2018-10-16T07:55:46.840Z,52.7
2018-10-16T07:56:36.853Z,53.4
2018-10-16T07:57:27.134Z,53.8
2018-10-16T07:58:16.694Z,53.8
2018-10-16T07:59:07.049Z,53.6
2018-10-16T07:59:57.099Z,53.4
2018-10-16T08:00:47.174Z,53.4
2018-10-16T08:01:36.629Z,53.6
2018-10-16T08:02:26.736Z,53.9
2018-10-16T08:03:17.361Z,54.3
2018-10-16T08:04:07.139Z,54.6
2018-10-16T08:04:57.781Z,54.7
2018-10-16T08:05:47.578Z,54.8
2018-10-16T08:06:37.603Z,54.9
2018-10-16T08:07:26.797Z,54.9
2018-10-16T08:08:18.544Z,55.1
2018-10-16T08:09:07.792Z,55.3
2018-10-16T08:09:57.841Z,55.5
2018-10-16T08:10:47.358Z,55.7
2018-10-16T08:11:38.028Z,55.8
2018-10-16T08:12:27.739Z,55.9
2018-10-16T08:13:17.824Z,56.1
2018-10-16T08:14:08.116Z,56.2
2018-10-16T08:14:57.956Z,56.3
2018-10-16T08:15:48.308Z,56.5
2018-10-16T08:16:38.363Z,56.7
2018-10-16T08:17:28.435Z,56.9
2018-10-16T08:18:18.486Z,57.1
2018-10-16T08:19:08.245Z,57.3
2018-10-16T08:19:58.302Z,57.4
2018-10-16T08:20:48.365Z,57.6
2018-10-16T08:21:38.730Z,57.7
2018-10-16T08:22:28.766Z,57.8
2018-10-16T08:23:18.552Z,58
2018-10-16T08:24:08.635Z,58.1
2018-10-16T08:24:59.013Z,58.3
2018-10-16T08:25:48.780Z,58.3
2018-10-16T08:26:38.792Z,58.4
2018-10-16T08:28:19.223Z,58.6
2018-10-16T08:29:08.998Z,58.8
2018-10-16T08:29:59.045Z,58.9
2018-10-16T08:30:49.107Z,59.1
2018-10-16T08:31:39.478Z,59.3
2018-10-16T08:32:29.503Z,59.4
2018-10-16T08:33:18.995Z,59.6
2018-10-16T08:34:09.997Z,59.7
2018-10-16T08:34:59.722Z,59.8
2018-10-16T08:35:49.567Z,59.9
2018-10-16T08:36:40.389Z,60.1
2018-10-16T08:37:30.173Z,60.3
2018-10-16T08:38:19.973Z,60.3
2018-10-16T08:39:09.752Z,60.5
2018-10-16T08:39:59.515Z,60.6
2018-10-16T08:40:50.382Z,60.8
2018-10-16T08:41:40.122Z,60.9
2018-10-16T08:42:29.990Z,61.1
2018-10-16T08:43:20.038Z,61.2
2018-10-16T08:44:10.386Z,61.3
2018-10-16T08:45:00.687Z,61.4
2018-10-16T08:45:50.517Z,61.4
2018-10-16T08:46:40.292Z,61.4
2018-10-16T08:47:30.924Z,61.3
2018-10-16T08:48:20.708Z,61.3
2018-10-16T08:49:10.765Z,61.3
2018-10-16T08:50:00.820Z,61.3
2018-10-16T08:50:50.887Z,61.3
2018-10-16T08:51:40.658Z,61.4
2018-10-16T08:52:30.469Z,61.5
2018-10-16T09:09:00.006Z,62.6
2018-10-16T09:09:50.321Z,62.7
2018-10-16T09:10:40.115Z,62.7
2018-10-16T09:11:30.175Z,62.7
2018-10-16T09:12:20.527Z,62.7
2018-10-16T09:13:11.011Z,62.7
2018-10-16T09:14:01.236Z,62.8
2018-10-16T09:14:50.711Z,62.9
2018-10-16T09:15:40.764Z,63
2018-10-16T09:16:30.543Z,63.2
2018-10-16T09:17:20.603Z,63.3
2018-10-16T09:18:10.662Z,63.5
2018-10-16T09:19:01.258Z,63.6
2018-10-16T09:19:50.768Z,63.8
2018-10-16T09:20:41.126Z,63.9
2018-10-16T09:21:31.180Z,63.9
2018-10-16T09:22:21.245Z,64.1
2018-10-16T09:23:11.045Z,64.2
2018-10-16T09:24:01.105Z,64.3
2018-10-16T09:24:51.560Z,64.4
2018-10-16T09:25:41.485Z,64.6
2018-10-16T09:26:31.547Z,64.6
2018-10-16T09:27:21.608Z,64.7
2018-10-16T09:28:11.392Z,64.8
2018-10-16T09:29:01.735Z,64.8
2018-10-16T09:29:51.510Z,64.7
2018-10-16T09:30:42.057Z,64.6
2018-10-16T09:31:31.625Z,64.6
2018-10-16T09:32:21.980Z,64.5
2018-10-16T09:33:11.765Z,64.5
2018-10-16T09:34:02.105Z,64.6
2018-10-16T09:34:51.883Z,64.6
2018-10-16T09:35:42.234Z,64.7
2018-10-16T09:36:32.285Z,64.8
2018-10-16T09:37:22.477Z,64.9
2018-10-16T09:38:12.424Z,65
2018-10-16T09:39:01.893Z,65.1
2018-10-16T09:39:52.555Z,65.3
2018-10-16T09:40:42.848Z,65.4
2018-10-16T09:41:32.677Z,65.5
2018-10-16T09:42:22.484Z,65.6
2018-10-16T09:43:12.529Z,65.7
2018-10-16T09:44:04.389Z,65.8
2018-10-16T09:44:52.956Z,65.8
2018-10-16T09:45:42.724Z,65.9
2018-10-16T09:46:32.739Z,66
2018-10-16T09:47:23.095Z,66
2018-10-16T09:48:12.559Z,66
2018-10-16T09:49:02.929Z,66
2018-10-16T09:49:53.280Z,65.9
2018-10-16T09:50:43.038Z,65.9
2018-10-16T09:51:33.399Z,65.8
2018-10-16T09:52:23.468Z,65.8
2018-10-16T09:53:13.519Z,65.8
2018-10-16T09:54:03.295Z,65.9
2018-10-16T09:54:53.896Z,65.9
2018-10-16T09:55:43.707Z,66
2018-10-16T09:56:33.764Z,66.1
2018-10-16T09:57:23.241Z,66.1
2018-10-16T09:58:13.607Z,66.1
2018-10-16T09:59:03.667Z,66.1
2018-10-16T09:59:53.677Z,66.1
2018-10-16T10:00:44.030Z,66.1
2018-10-16T10:01:33.836Z,66.2
2018-10-16T10:02:24.247Z,66.2
2018-10-16T10:03:13.681Z,66.2
2018-10-16T10:04:04.313Z,66.2
2018-10-16T10:04:54.331Z,66.3
2018-10-16T10:05:44.426Z,66.3
2018-10-16T10:06:34.208Z,66.3
2018-10-16T10:07:24.581Z,66.3
2018-10-16T10:08:14.622Z,66.3
2018-10-16T10:09:04.421Z,66.3
2018-10-16T10:09:54.463Z,66.4
2018-10-16T10:10:44.829Z,66.4
2018-10-16T10:11:35.093Z,66.4
2018-10-16T10:12:24.928Z,66.4
2018-10-16T10:13:14.987Z,66.5
2018-10-16T10:14:05.049Z,66.6
2018-10-16T10:14:54.820Z,66.6
2018-10-16T10:15:44.895Z,66.7
2018-10-16T10:16:35.455Z,66.8
2018-10-16T10:17:25.293Z,66.8
2018-10-16T10:18:15.108Z,66.8
2018-10-16T10:19:04.860Z,66.8
2018-10-16T10:19:55.208Z,66.7
2018-10-16T10:20:45.551Z,66.6
2018-10-16T10:21:35.552Z,66.4
2018-10-16T10:22:25.669Z,66.1
2018-10-16T10:23:15.608Z,65.8
2018-10-16T10:24:05.780Z,65.6
2018-10-16T10:24:55.847Z,65.4
2018-10-16T10:25:45.609Z,65.3
2018-10-16T10:26:35.105Z,65.3
2018-10-16T10:27:25.742Z,65.3
2018-10-16T10:28:15.812Z,65.2
2018-10-16T10:29:06.176Z,65.1
2018-10-16T10:29:55.935Z,65.1
2018-10-16T10:30:45.730Z,65.1
2018-10-16T10:31:36.339Z,65
2018-10-16T10:32:26.416Z,65.1
2018-10-16T10:33:16.204Z,65.2
2018-10-16T10:34:06.242Z,65.3
2018-10-16T10:34:56.594Z,65.4
2018-10-16T10:35:46.674Z,65.6
2018-10-16T10:36:36.734Z,65.7
2018-10-16T10:37:26.484Z,65.8
2018-10-16T10:38:16.571Z,65.9
2018-10-16T10:39:06.881Z,66
2018-10-16T10:39:56.966Z,66.1
2018-10-16T10:40:46.728Z,66.1
2018-10-16T10:41:37.120Z,66.2
2018-10-16T10:42:27.187Z,66.2
2018-10-16T10:43:17.257Z,66.3
2018-10-16T10:44:07.004Z,66.3
2018-10-16T10:44:57.365Z,66.3
2018-10-16T10:45:47.423Z,66.3
2018-10-16T10:46:37.198Z,66.4
2018-10-16T10:47:27.544Z,66.4
2018-10-16T10:48:17.615Z,66.4
2018-10-16T10:49:07.695Z,66.4
2018-10-16T10:49:57.901Z,66.5
2018-10-16T10:50:48.803Z,66.6
2018-10-16T10:51:40.648Z,66.6
2018-10-16T10:52:27.617Z,66.6
2018-10-16T10:53:17.970Z,66.6
2018-10-16T10:54:08.017Z,66.5
2018-10-16T10:54:58.123Z,66.4
2018-10-16T10:55:48.190Z,66.3
2018-10-16T10:56:38.482Z,66.1
2018-10-16T10:57:28.278Z,66.1
2018-10-16T10:58:18.832Z,66
2018-10-16T10:59:08.169Z,66.1
2018-10-16T10:59:58.705Z,66.1
2018-10-16T11:00:48.603Z,66.1
2018-10-16T11:01:38.618Z,66.3
2018-10-16T11:02:28.675Z,66.3
2018-10-16T11:03:19.699Z,66.4
2018-10-16T11:04:08.419Z,66.4
2018-10-16T11:04:59.063Z,66.3
2018-10-16T11:05:48.914Z,66.3
2018-10-16T11:06:39.002Z,66.2
2018-10-16T11:07:29.003Z,66.1
2018-10-16T11:08:19.024Z,66.1
2018-10-16T11:09:10.135Z,66.1
2018-10-16T11:09:59.178Z,66.1
2018-10-16T11:10:49.287Z,66.1
2018-10-16T11:11:38.994Z,66.1
2018-10-16T11:12:29.390Z,65.9
2018-10-16T11:13:19.410Z,65.8
2018-10-16T11:14:09.217Z,65.6
2018-10-16T11:14:59.692Z,65.5
2018-10-16T11:15:49.651Z,65.4
2018-10-16T11:16:39.685Z,65.4
2018-10-16T11:17:29.471Z,65.3
2018-10-16T11:18:19.571Z,65.3
2018-10-16T11:19:09.929Z,65.3
2018-10-16T11:19:59.974Z,65.2
2018-10-16T11:20:49.996Z,65.1
2018-10-16T11:21:40.025Z,65.1
2018-10-16T11:22:29.829Z,65.1
2018-10-16T11:23:20.347Z,65.1
2018-10-16T11:24:10.252Z,65.1
2018-10-16T11:25:00.264Z,65.1
2018-10-16T11:25:50.343Z,65.1
2018-10-16T11:26:40.135Z,65
2018-10-16T11:27:30.480Z,65
2018-10-16T11:28:20.553Z,64.9
2018-10-16T11:29:10.308Z,64.9
2018-10-16T11:30:00.530Z,64.9
2018-10-16T11:30:50.448Z,64.9
2018-10-16T11:31:40.800Z,64.9
2018-10-16T11:32:30.847Z,64.9
2018-10-16T11:33:20.609Z,65
2018-10-16T11:34:10.990Z,65
2018-10-16T11:35:01.027Z,65.1
2018-10-16T11:35:51.089Z,65.1
2018-10-16T11:36:41.152Z,65.1
2018-10-16T11:37:31.212Z,65.1
2018-10-16T11:38:20.949Z,65.1
2018-10-16T11:39:11.948Z,65.1
2018-10-16T11:40:01.370Z,65.1
2018-10-16T11:40:51.158Z,64.9
2018-10-16T11:41:41.492Z,64.9
2018-10-16T11:42:31.547Z,64.8
2018-10-16T11:43:21.627Z,64.8
2018-10-16T11:44:11.107Z,64.7
2018-10-16T11:45:02.028Z,64.6
2018-10-16T11:45:52.254Z,64.4
2018-10-16T11:46:41.573Z,64.3
2018-10-16T11:47:31.939Z,64.2
2018-10-16T11:48:21.982Z,64
2018-10-16T11:49:12.047Z,63.9
2018-10-16T11:50:02.541Z,63.8
2018-10-16T11:50:52.227Z,63.8
2018-10-16T11:51:41.945Z,63.8
2018-10-16T11:52:32.022Z,63.8
2018-10-16T11:53:22.069Z,63.8
2018-10-16T11:54:12.429Z,63.8
2018-10-16T11:55:02.488Z,63.8
2018-10-16T11:55:52.689Z,63.8
2018-10-16T11:56:42.598Z,63.8
2018-10-16T11:57:32.385Z,63.7
2018-10-16T11:58:22.439Z,63.7
2018-10-16T11:59:13.098Z,63.7
2018-10-16T12:00:02.871Z,63.7
2018-10-16T12:00:52.911Z,63.6
2018-10-16T12:01:42.691Z,63.6
2018-10-16T12:02:32.962Z,63.6
2018-10-16T12:03:23.105Z,63.5
2018-10-16T12:04:12.871Z,63.4
2018-10-16T12:05:03.218Z,63.4
2018-10-16T12:05:53.461Z,63.3
2018-10-16T12:06:43.340Z,63.1
2018-10-16T12:07:33.412Z,63
2018-10-16T12:08:23.474Z,62.9
2018-10-16T12:09:13.528Z,62.8
2018-10-16T12:10:03.589Z,62.8